createdAt,value
2022-12-23T00:07:52.203Z,2.47
2022-12-23T00:23:06.912Z,2.67
2022-12-23T00:38:10.877Z,2.00
2022-12-23T00:53:13.645Z,3.40
2022-12-23T01:08:16.510Z,4.90
2022-12-23T01:23:19.467Z,5.50
2022-12-23T01:38:22.270Z,7.97
2022-12-23T01:53:35.611Z,8.07
2022-12-23T02:08:58.263Z,6.33
2022-12-23T02:24:22.035Z,8.80
2022-12-23T02:39:33.802Z,6.03
2022-12-23T02:54:41.865Z,6.17
2022-12-23T03:10:21.755Z,3.53
2022-12-23T03:26:07.589Z,5.50
2022-12-23T03:41:16.476Z,4.00
2022-12-23T03:56:27.336Z,4.00
2022-12-23T04:11:30.446Z,4.60
2022-12-23T04:26:33.193Z,5.60
2022-12-23T04:41:35.967Z,5.53
2022-12-23T04:56:38.649Z,5.30
2022-12-23T05:11:42.506Z,5.30
2022-12-23T05:26:52.850Z,6.23
2022-12-23T05:42:00.508Z,5.33
2022-12-23T05:57:03.437Z,5.33
2022-12-23T06:12:06.502Z,2.93
2022-12-23T06:27:09.261Z,5.00
2022-12-23T06:42:11.968Z,5.83
2022-12-23T06:57:14.804Z,8.00
2022-12-23T07:12:17.515Z,5.13
2022-12-23T07:27:20.211Z,5.73
2022-12-23T07:57:49.965Z,6.70
2022-12-23T08:12:52.837Z,6.17
2022-12-23T08:27:55.609Z,6.17
2022-12-23T08:42:58.341Z,8.13
2022-12-23T08:58:01.221Z,8.87
2022-12-23T09:13:03.947Z,6.30
2022-12-23T09:28:07.342Z,6.93
2022-12-23T09:43:28.313Z,5.07
2022-12-23T09:58:42.055Z,4.63
2022-12-23T10:13:47.079Z,1.87
2022-12-23T10:28:55.033Z,1.73
2022-12-23T10:44:15.987Z,3.80
2022-12-23T10:59:25.761Z,4.67
2022-12-23T11:14:40.004Z,3.20
2022-12-23T11:29:55.121Z,2.50
2022-12-23T11:45:00.187Z,5.17
2022-12-23T12:00:05.335Z,3.53
2022-12-23T12:15:25.488Z,3.37
2022-12-23T12:30:34.704Z,2.73
2022-12-23T12:45:49.274Z,3.43
2022-12-23T13:01:13.903Z,3.73
2022-12-23T13:16:35.075Z,2.57
2022-12-23T13:31:46.833Z,1.10
2022-12-23T13:47:21.963Z,1.13
2022-12-23T14:02:37.040Z,2.03
2022-12-23T14:18:07.999Z,1.20
2022-12-23T14:33:33.036Z,1.77
2022-12-23T14:48:44.305Z,1.60
2022-12-23T15:03:59.082Z,1.67
2022-12-23T15:19:19.266Z,1.40
2022-12-23T15:34:33.469Z,1.93
2022-12-23T15:49:36.221Z,1.33
2022-12-23T16:04:39.843Z,1.70
2022-12-23T16:19:49.711Z,3.00
2022-12-23T16:34:52.547Z,8.17
2022-12-23T16:49:55.600Z,9.37
2022-12-23T17:04:58.454Z,9.03
2022-12-23T17:20:01.306Z,9.60
2022-12-23T17:35:04.480Z,12.50
2022-12-23T17:50:09.172Z,13.93
2022-12-23T18:05:27.714Z,13.03
2022-12-23T18:20:30.531Z,12.73
2022-12-23T18:35:43.663Z,12.13
2022-12-23T18:50:46.820Z,13.97
2022-12-23T19:05:50.530Z,14.37
2022-12-23T19:20:53.425Z,16.77
2022-12-23T19:35:56.142Z,16.47
2022-12-23T19:51:00.457Z,15.23
2022-12-23T20:06:07.980Z,13.83
2022-12-23T20:21:11.777Z,13.77
2022-12-23T20:36:16.507Z,9.27
2022-12-23T20:51:24.030Z,14.17
2022-12-23T21:06:28.511Z,14.23
2022-12-23T21:21:32.029Z,12.57
2022-12-23T21:36:37.756Z,11.93
2022-12-23T21:51:41.701Z,12.83
2022-12-23T22:06:45.653Z,13.50
2022-12-23T22:21:48.938Z,13.57
2022-12-23T22:36:51.836Z,15.30
2022-12-23T22:51:54.753Z,17.53
2022-12-23T23:06:57.504Z,16.80
2022-12-23T23:22:01.129Z,17.17
2022-12-23T23:37:04.771Z,13.80
2022-12-23T23:52:07.643Z,18.10
